This is the latest recevied weather packets stored in our database for station/object JE7UPL-13. If no packets are shown the sender has not sent any weather packets the latest 10 day(s).
| Time | Temp. | Humidity | Pressure | Rain* | Wind** | Luminosity | Snow |
|---|---|---|---|---|---|---|---|
| 1777957206 | 20° C | 32% | 1011.3 hPa | 0 mm | - | - | - |
| 1777956305 | 19.44° C | 31% | 1011.4 hPa | 0 mm | - | - | - |
| 1777955405 | 19.44° C | 32% | 1011.4 hPa | 0 mm | - | - | - |
| 1777954505 | 19.44° C | 31% | 1011.4 hPa | 0 mm | - | - | - |
| 1777943705 | 15° C | 50% | 1012.6 hPa | 0 mm | - | - | - |
| 1777940105 | 13.89° C | 52% | 1013 hPa | 0 mm | - | - | - |
| 1777937406 | 12.22° C | 55% | 1012.8 hPa | 0 mm | - | - | - |
| 1777934706 | 11.67° C | 54% | 1012.4 hPa | 0 mm | - | - | - |
| 1777921206 | 8.33° C | 66% | 1009.3 hPa | 0 mm | - | - | - |
| 1777919406 | 8.33° C | 65% | 1008.8 hPa | 0 mm | - | - | - |
| 1777904106 | 7.78° C | 86% | 1001.4 hPa | 0 mm | - | - | - |
| 1777903206 | 7.78° C | 83% | 1001.3 hPa | 0 mm | - | - | - |
| 1777900506 | 8.89° C | 82% | 999.3 hPa | 0 mm | - | - | - |
| 1777897806 | 9.44° C | 86% | 997.3 hPa | 0 mm | - | - | - |
| 1777896905 | 10° C | 85% | 996.7 hPa | 0 mm | - | - | - |
| 1777895106 | 10° C | 84% | 996.3 hPa | 0 mm | - | - | - |
| 1777894206 | 10.56° C | 85% | 995.8 hPa | 0 mm | - | - | - |
| 1777893306 | 10.56° C | 87% | 994.9 hPa | 0 mm | - | - | - |
| 1777889705 | 13.33° C | 67% | 992.3 hPa | 0 mm | - | - | - |
| 1777888806 | 13.89° C | 65% | 991.9 hPa | 0 mm | - | - | - |
| 1777887005 | 14.44° C | 68% | 991.2 hPa | 0 mm | - | - | - |
| 1777886105 | 15° C | 66% | 991.1 hPa | 0 mm | - | - | - |
| 1777885205 | 15° C | 62% | 990.6 hPa | 0 mm | - | - | - |
| 1777884306 | 16.11° C | 61% | 990.6 hPa | 0 mm | - | - | - |
| 1777883406 | 16.11° C | 62% | 990.1 hPa | 0 mm | - | - | - |
* Rain latest hour (hover to see other rain measurements)
** Current wind speed in m/s (hover to see current wind gust speed)